Latest Weather Observations for Jimna

IDQ60801

Issued at 8:02 am EST Thursday 30 July 2015 (issued every 30 minutes, with the page automatically refreshed every 10 minutes)

About weather observations | Map of weather stations | Latest weather observations for QLD | Other Formats
Station Details ID: 040651 Name: JIMNA FORESTRY Lat: -26.66 Lon: 152.46 Height: 523.0 m
Data from the previous 72 hours. | See also: Recent months at Jimna
Date/Time
EST
Temp
°C
App
Temp
°C
Dew
Point
Rel
Hum
%
Delta-T
°C
Wind Press
QNH
hPa
Press
MSL
hPa
Rain
since 9 am
mm
Dir
 
Spd
km/h
Gust
km/h
Spd
kts
Gust
kts
30/08:00am 6.2 - 6.1 99 0.0 - - - - - - - 0.0
30/07:30am 3.7 - - - - - - - - - - - 0.0
30/07:00am 2.2 - - - - - - - - - - - 0.0
30/06:30am 1.9 - - - - - - - - - - - 0.0
30/06:00am 1.3 - 1.6 - - - - - - - - - 0.0
30/05:30am 2.4 - - - - - - - - - - - 0.0
30/05:00am 1.8 - - - - - - - - - - - 0.0
30/04:30am 1.7 - 2.0 - - - - - - - - - 0.0
30/04:00am 1.7 - - - - - - - - - - - 0.0
30/03:30am 2.0 - 2.3 - - - - - - - - - 0.0
30/03:00am 2.6 - 2.9 - - - - - - - - - 0.0
30/02:30am 2.1 - 2.2 - - - - - - - - - 0.0
30/02:00am 1.9 - 1.0 94 0.4 - - - - - - - 0.0
30/01:30am 2.4 - 1.5 94 0.4 - - - - - - - 0.0
30/01:00am 2.5 - 1.6 94 0.4 - - - - - - - 0.0
30/12:30am 2.6 - 1.6 93 0.4 - - - - - - - 0.0
30/12:00am 2.9 - 1.7 92 0.5 - - - - - - - 0.0
 
Date/Time
EST
Temp
°C
App
Temp
°C
Dew
Point
Rel
Hum
%
Delta-T
°C
Wind Press
QNH
hPa
Press
MSL
hPa
Rain
since 9 am
mm
Dir
 
Spd
km/h
Gust
km/h
Spd
kts
Gust
kts
29/11:30pm 3.8 - 2.8 93 0.4 - - - - - - - 0.0
29/11:00pm 3.7 - 2.5 92 0.5 - - - - - - - 0.0
29/10:30pm 4.2 - 2.9 91 0.5 - - - - - - - 0.0
29/10:00pm 4.7 - 3.2 90 0.6 - - - - - - - 0.0
29/09:30pm 4.9 - 3.2 89 0.7 - - - - - - - 0.0
29/09:00pm 5.7 - 3.9 88 0.8 - - - - - - - 0.0
29/08:30pm 6.3 - 4.5 88 0.8 - - - - - - - 0.0
29/08:00pm 6.8 - 4.5 85 1.0 - - - - - - - 0.0
29/07:30pm 7.8 - 5.1 83 1.2 - - - - - - - 0.0
29/07:00pm 9.0 - 5.4 78 1.7 - - - - - - - 0.0
29/06:30pm 10.0 - 5.4 73 2.2 - - - - - - - 0.0
29/06:00pm 11.1 - 5.8 70 2.5 - - - - - - - 0.0
29/05:30pm 11.7 - 5.3 65 3.0 - - - - - - - 0.0
29/05:00pm 12.6 - 6.0 64 3.2 - - - - - - - 0.0
29/04:30pm 13.4 - 5.6 59 3.8 - - - - - - - 0.0
29/04:00pm 14.9 - 5.4 53 4.6 - - - - - - - 0.0
29/03:30pm 16.2 - 6.3 52 5.0 - - - - - - - 0.0
29/03:00pm 16.2 - 6.3 52 5.0 - - - - - - - 0.0
29/02:30pm 15.9 - 6.1 52 4.9 - - - - - - - 0.0
29/02:00pm 16.4 - 7.3 55 4.7 - - - - - - - 0.0
29/01:30pm 15.8 - 6.3 53 4.7 - - - - - - - 0.0
29/01:00pm 17.1 - 6.6 50 5.3 - - - - - - - 0.0
29/12:30pm 15.7 - 6.2 53 4.7 - - - - - - - 0.0
29/12:00pm 15.4 - 5.3 51 4.9 - - - - - - - 0.0
29/11:30am 15.5 - 6.5 55 4.5 - - - - - - - 0.0
29/11:00am 14.6 - 5.9 56 4.3 - - - - - - - 0.0
29/10:30am 14.1 - 5.2 55 4.3 - - - - - - - 0.0
29/10:00am 12.6 - 4.8 59 3.7 - - - - - - - 0.0
29/09:30am 11.5 - 4.7 63 3.2 - - - - - - - 0.0
29/09:00am 10.8 - 4.9 67 2.8 - - - - - - - 0.0
29/08:30am 9.2 - 4.2 71 2.3 - - - - - - - 0.0
29/08:00am 7.8 - 4.6 80 1.4 - - - - - - - 0.0
29/07:30am 6.4 - 4.9 90 0.7 - - - - - - - 0.0
29/07:00am 5.3 - 4.6 95 0.3 - - - - - - - 0.0
29/06:30am 5.0 - 3.8 92 0.5 - - - - - - - 0.0
29/06:00am 5.2 - 4.0 92 0.5 - - - - - - - 0.0
29/05:30am 5.4 - 4.1 91 0.6 - - - - - - - 0.0
29/05:00am 5.4 - 4.2 92 0.5 - - - - - - - 0.0
29/04:30am 5.1 - 3.8 91 0.6 - - - - - - - 0.0
29/04:00am 5.3 - 3.5 88 0.8 - - - - - - - 0.0
29/03:30am 6.2 - 4.4 88 0.8 - - - - - - - 0.0
29/03:00am 6.8 - 5.0 88 0.8 - - - - - - - 0.0
29/02:30am 7.2 - 5.3 88 0.9 - - - - - - - 0.0
29/02:00am 7.2 - 5.5 89 0.8 - - - - - - - 0.0
29/01:30am 7.4 - 5.5 88 0.9 - - - - - - - 0.0
29/01:00am 7.5 - 5.3 86 1.0 - - - - - - - 0.0
29/12:30am 8.1 - 5.2 82 1.3 - - - - - - - 0.0
29/12:00am 9.3 - 5.3 76 1.9 - - - - - - - 0.0
 
Date/Time
EST
Temp
°C
App
Temp
°C
Dew
Point
Rel
Hum
%
Delta-T
°C
Wind Press
QNH
hPa
Press
MSL
hPa
Rain
since 9 am
mm
Dir
 
Spd
km/h
Gust
km/h
Spd
kts
Gust
kts
28/11:30pm 9.5 - 5.3 75 2.0 - - - - - - - 0.0
28/11:00pm 9.5 - 5.5 76 1.9 - - - - - - - 0.0
28/10:30pm 8.6 - 5.9 83 1.3 - - - - - - - 0.0
28/10:00pm 8.2 - 5.7 84 1.2 - - - - - - - 0.0
28/09:30pm 9.5 - 5.9 78 1.7 - - - - - - - 0.0
28/09:00pm 9.7 - 5.9 77 1.8 - - - - - - - 0.0
28/08:30pm 9.7 - 6.2 79 1.7 - - - - - - - 0.0
28/08:00pm 9.5 - 6.6 82 1.4 - - - - - - - 0.0
28/07:30pm 9.7 - 6.8 82 1.4 - - - - - - - 0.0
28/07:00pm 9.5 - 6.9 84 1.3 - - - - - - - 0.0
28/06:30pm 9.6 - 6.1 79 1.7 - - - - - - - 0.0
28/06:00pm 10.9 - 6.8 76 2.0 - - - - - - - 0.0
28/05:30pm 12.0 - 6.7 70 2.6 - - - - - - - 0.0
28/05:00pm 13.3 - 6.9 65 3.2 - - - - - - - 0.0
28/04:30pm 14.0 - 7.1 63 3.5 - - - - - - - 0.0
28/04:00pm 14.9 - 7.0 59 4.0 - - - - - - - 0.0
28/03:30pm 16.1 - 7.1 55 4.6 - - - - - - - 0.0
28/03:00pm 16.4 - 6.8 53 4.9 - - - - - - - 0.0
28/02:30pm 15.4 - 6.1 54 4.6 - - - - - - - 0.0
28/02:00pm 16.6 - 6.4 51 5.1 - - - - - - - 0.0
28/01:30pm 16.2 - 7.4 56 4.5 - - - - - - - 0.0
28/01:00pm 15.4 - 7.4 59 4.1 - - - - - - - 0.0
28/12:30pm 15.1 - 7.6 61 3.8 - - - - - - - 0.0
28/12:00pm 15.4 - 8.6 64 3.5 - - - - - - - 0.0
28/11:30am 14.7 - 7.5 62 3.7 - - - - - - - 0.0
28/11:00am 15.0 - 8.3 64 3.5 - - - - - - - 0.0
28/10:30am 13.4 - 6.0 61 3.6 - - - - - - - 0.0
28/10:00am 12.7 - 5.6 62 3.4 - - - - - - - 0.0
28/09:30am 11.1 - 4.3 63 3.1 - - - - - - - -
28/09:00am 9.7 - 3.7 66 2.7 - - - - - - - 0.0
28/08:30am 8.5 - 2.9 68 2.5 - - - - - - - 0.0
28/08:00am 6.5 - 2.4 75 1.7 - - - - - - - 0.0
28/07:30am 5.6 - 3.1 84 1.1 - - - - - - - 0.0
28/07:00am 4.3 - 2.5 88 0.7 - - - - - - - 0.0
28/06:30am 3.9 - 2.1 88 0.7 - - - - - - - 0.0
28/06:00am 4.0 - 2.2 88 0.7 - - - - - - - 0.0
28/05:30am 4.0 - 2.2 88 0.7 - - - - - - - 0.0
28/05:00am 4.3 - 2.3 87 0.8 - - - - - - - 0.0
28/04:30am 4.5 - 2.5 87 0.8 - - - - - - - 0.0
28/04:00am 4.5 - 2.5 87 0.8 - - - - - - - 0.0
28/03:30am 4.5 - 2.5 87 0.8 - - - - - - - 0.0
28/03:00am 4.6 - 2.5 86 0.9 - - - - - - - 0.0
28/02:30am 4.6 - 2.6 87 0.8 - - - - - - - 0.0
28/02:00am 4.5 - 2.4 86 0.9 - - - - - - - 0.0
28/01:30am 4.5 - 2.4 86 0.9 - - - - - - - 0.0
28/01:00am 4.6 - 2.1 84 1.0 - - - - - - - 0.0
28/12:30am 5.2 - 2.4 82 1.2 - - - - - - - 0.0
28/12:00am 5.6 - 2.6 81 1.3 - - - - - - - 0.0
 
Date/Time
EST
Temp
°C
App
Temp
°C
Dew
Point
Rel
Hum
%
Delta-T
°C
Wind Press
QNH
hPa
Press
MSL
hPa
Rain
since 9 am
mm
Dir
 
Spd
km/h
Gust
km/h
Spd
kts
Gust
kts
27/11:30pm 5.6 - 2.6 81 1.3 - - - - - - - 0.0
27/11:00pm 6.2 - 3.2 81 1.3 - - - - - - - 0.0
27/10:30pm 6.8 - 3.1 77 1.6 - - - - - - - 0.0
27/10:00pm 7.6 - 3.3 74 1.9 - - - - - - - 0.0
27/09:30pm 8.5 - 2.3 65 2.7 - - - - - - - 0.0
27/09:00pm 9.7 - 3.2 64 2.9 - - - - - - - 0.0
27/08:30pm 10.7 - 3.5 61 3.3 - - - - - - - 0.0
27/08:00pm 11.7 - 4.2 60 3.5 - - - - - - - 0.0
27/07:30pm 12.1 - 5.3 63 3.2 - - - - - - - 0.0
27/07:00pm 11.8 - 5.0 63 3.2 - - - - - - - 0.0
27/06:30pm 12.8 - 5.0 59 3.7 - - - - - - - 0.0
27/06:00pm 13.2 - 5.1 58 3.9 - - - - - - - 0.0
27/05:30pm 13.7 - 5.3 57 4.1 - - - - - - - 0.0
27/05:00pm 14.4 - 5.2 54 4.4 - - - - - - - 0.0
27/04:30pm 15.2 - 4.3 48 5.2 - - - - - - - 0.0
27/04:00pm 16.1 - 4.2 45 5.7 - - - - - - - 0.0
27/03:30pm 16.9 - 4.6 44 6.0 - - - - - - - 0.0
27/03:00pm 17.2 - 3.5 40 6.5 - - - - - - - 0.0
27/02:30pm 17.7 - 3.6 39 6.8 - - - - - - - 0.0
27/02:00pm 17.7 - 4.3 41 6.5 - - - - - - - 0.0
27/01:30pm 17.8 - 4.0 40 6.7 - - - - - - - 0.0
27/01:00pm 18.1 - 4.3 40 6.7 - - - - - - - 0.0
27/12:30pm 18.1 - 5.3 43 6.4 - - - - - - - 0.0
27/12:00pm 17.9 - 6.4 47 5.8 - - - - - - - 0.0
27/11:30am 17.1 - 6.0 48 5.6 - - - - - - - 0.0
27/11:00am 16.3 - 5.9 50 5.2 - - - - - - - 0.0
27/10:30am 16.1 - 6.0 51 5.0 - - - - - - - 0.0
27/09:30am 14.6 - 6.2 57 4.2 - - - - - - - 0.0
27/09:00am 13.8 - 6.7 62 3.5 - - - - - - - 0.0
27/08:30am 13.1 - 7.3 68 2.9 - - - - - - - 0.0

Other Formats:

Comma delimited format used in spreadsheet applications
http://www.bom.gov.au/fwo/IDQ60801/IDQ60801.94557.axf

JavaScript Object Notation format (JSON) in row-major order
http://www.bom.gov.au/fwo/IDQ60801/IDQ60801.94557.json